sensor_id;sensor_type;location;lat;lon;timestamp;temperature;humidity
17687;DHT22;8962;52.538;13.266;2023-08-24T00:02:14;18.20;99.90
17687;DHT22;8962;52.538;13.266;2023-08-24T00:04:43;18.10;99.90
17687;DHT22;8962;52.538;13.266;2023-08-24T00:07:10;18.10;99.90
17687;DHT22;8962;52.538;13.266;2023-08-24T00:09:37;18.10;99.90
17687;DHT22;8962;52.538;13.266;2023-08-24T00:12:05;18.10;99.90
17687;DHT22;8962;52.538;13.266;2023-08-24T00:14:32;18.00;99.90
17687;DHT22;8962;52.538;13.266;2023-08-24T00:17:01;18.00;99.90
17687;DHT22;8962;52.538;13.266;2023-08-24T00:19:28;18.00;99.90
17687;DHT22;8962;52.538;13.266;2023-08-24T00:21:55;18.00;99.90
17687;DHT22;8962;52.538;13.266;2023-08-24T00:24:22;17.90;99.90
17687;DHT22;8962;52.538;13.266;2023-08-24T00:26:50;17.90;99.90
17687;DHT22;8962;52.538;13.266;2023-08-24T00:29:17;17.90;99.90
17687;DHT22;8962;52.538;13.266;2023-08-24T00:31:44;17.90;99.90
17687;DHT22;8962;52.538;13.266;2023-08-24T00:34:13;17.80;99.90
17687;DHT22;8962;52.538;13.266;2023-08-24T00:36:40;17.80;99.90
17687;DHT22;8962;52.538;13.266;2023-08-24T00:39:07;17.80;99.90
17687;DHT22;8962;52.538;13.266;2023-08-24T00:41:37;17.80;99.90
17687;DHT22;8962;52.538;13.266;2023-08-24T00:44:04;17.80;99.90
17687;DHT22;8962;52.538;13.266;2023-08-24T00:46:33;17.80;99.90
17687;DHT22;8962;52.538;13.266;2023-08-24T00:49:01;17.80;99.90
17687;DHT22;8962;52.538;13.266;2023-08-24T00:51:30;17.80;99.90
17687;DHT22;8962;52.538;13.266;2023-08-24T00:53:58;17.80;99.90
17687;DHT22;8962;52.538;13.266;2023-08-24T00:56:25;17.80;99.90
17687;DHT22;8962;52.538;13.266;2023-08-24T00:58:54;17.80;99.90
17687;DHT22;8962;52.538;13.266;2023-08-24T01:01:21;17.80;99.90
17687;DHT22;8962;52.538;13.266;2023-08-24T01:03:50;17.80;99.90
17687;DHT22;8962;52.538;13.266;2023-08-24T01:06:17;17.80;99.90
17687;DHT22;8962;52.538;13.266;2023-08-24T01:08:45;17.80;99.90
17687;DHT22;8962;52.538;13.266;2023-08-24T01:11:22;17.90;99.90
17687;DHT22;8962;52.538;13.266;2023-08-24T01:13:59;17.90;99.90
17687;DHT22;8962;52.538;13.266;2023-08-24T01:16:30;17.90;99.90
17687;DHT22;8962;52.538;13.266;2023-08-24T01:19:00;17.90;99.90
17687;DHT22;8962;52.538;13.266;2023-08-24T01:21:28;18.00;99.90
17687;DHT22;8962;52.538;13.266;2023-08-24T01:24:04;18.00;99.90
17687;DHT22;8962;52.538;13.266;2023-08-24T01:26:35;18.10;99.90
17687;DHT22;8962;52.538;13.266;2023-08-24T01:29:04;18.10;99.90
17687;DHT22;8962;52.538;13.266;2023-08-24T01:31:33;18.10;99.90
17687;DHT22;8962;52.538;13.266;2023-08-24T01:34:00;18.20;99.90
17687;DHT22;8962;52.538;13.266;2023-08-24T01:36:27;18.20;99.90
17687;DHT22;8962;52.538;13.266;2023-08-24T01:38:59;18.20;99.90
17687;DHT22;8962;52.538;13.266;2023-08-24T01:41:37;18.30;99.90
17687;DHT22;8962;52.538;13.266;2023-08-24T01:44:11;18.30;99.90
17687;DHT22;8962;52.538;13.266;2023-08-24T01:46:43;18.30;99.90
17687;DHT22;8962;52.538;13.266;2023-08-24T01:49:13;18.30;99.90
17687;DHT22;8962;52.538;13.266;2023-08-24T01:51:41;18.30;99.90
17687;DHT22;8962;52.538;13.266;2023-08-24T01:54:10;18.30;99.90
17687;DHT22;8962;52.538;13.266;2023-08-24T01:56:38;18.30;99.90
17687;DHT22;8962;52.538;13.266;2023-08-24T01:59:06;18.40;99.90
17687;DHT22;8962;52.538;13.266;2023-08-24T02:01:33;18.40;99.90
17687;DHT22;8962;52.538;13.266;2023-08-24T02:04:00;18.50;99.90
17687;DHT22;8962;52.538;13.266;2023-08-24T02:06:27;18.60;99.90
17687;DHT22;8962;52.538;13.266;2023-08-24T02:08:55;18.70;99.90
17687;DHT22;8962;52.538;13.266;2023-08-24T02:11:22;18.90;99.90
17687;DHT22;8962;52.538;13.266;2023-08-24T02:13:50;19.00;99.90
17687;DHT22;8962;52.538;13.266;2023-08-24T02:16:18;19.10;99.90
17687;DHT22;8962;52.538;13.266;2023-08-24T02:18:45;19.10;99.90
17687;DHT22;8962;52.538;13.266;2023-08-24T02:21:12;19.30;99.90
17687;DHT22;8962;52.538;13.266;2023-08-24T02:23:40;19.30;99.90
17687;DHT22;8962;52.538;13.266;2023-08-24T02:26:08;19.30;99.90
17687;DHT22;8962;52.538;13.266;2023-08-24T02:28:36;19.30;99.90
17687;DHT22;8962;52.538;13.266;2023-08-24T02:31:05;19.40;99.90
17687;DHT22;8962;52.538;13.266;2023-08-24T02:33:34;19.40;99.90
17687;DHT22;8962;52.538;13.266;2023-08-24T02:36:01;19.40;99.90
17687;DHT22;8962;52.538;13.266;2023-08-24T02:38:28;19.50;99.90
17687;DHT22;8962;52.538;13.266;2023-08-24T02:41:03;19.50;99.90
17687;DHT22;8962;52.538;13.266;2023-08-24T02:43:30;19.50;99.90
17687;DHT22;8962;52.538;13.266;2023-08-24T02:46:00;19.60;99.90
17687;DHT22;8962;52.538;13.266;2023-08-24T02:48:30;19.60;99.90
17687;DHT22;8962;52.538;13.266;2023-08-24T02:50:57;19.70;99.90
17687;DHT22;8962;52.538;13.266;2023-08-24T02:53:26;19.60;99.90
17687;DHT22;8962;52.538;13.266;2023-08-24T02:55:54;19.60;99.90
17687;DHT22;8962;52.538;13.266;2023-08-24T02:58:21;19.50;99.90
17687;DHT22;8962;52.538;13.266;2023-08-24T03:00:50;19.50;99.90
17687;DHT22;8962;52.538;13.266;2023-08-24T03:03:17;19.50;99.90
17687;DHT22;8962;52.538;13.266;2023-08-24T03:05:54;19.60;99.90
17687;DHT22;8962;52.538;13.266;2023-08-24T03:08:22;19.60;99.90
17687;DHT22;8962;52.538;13.266;2023-08-24T03:10:49;19.60;99.90
17687;DHT22;8962;52.538;13.266;2023-08-24T03:13:16;19.60;99.90
17687;DHT22;8962;52.538;13.266;2023-08-24T03:15:43;19.50;99.90
17687;DHT22;8962;52.538;13.266;2023-08-24T03:18:12;19.50;99.90
17687;DHT22;8962;52.538;13.266;2023-08-24T03:20:39;19.50;99.90
17687;DHT22;8962;52.538;13.266;2023-08-24T03:23:09;19.50;99.90
17687;DHT22;8962;52.538;13.266;2023-08-24T03:25:37;19.50;99.90
17687;DHT22;8962;52.538;13.266;2023-08-24T03:28:05;19.50;99.90
17687;DHT22;8962;52.538;13.266;2023-08-24T03:30:33;19.50;99.90
17687;DHT22;8962;52.538;13.266;2023-08-24T03:33:01;19.40;99.90
17687;DHT22;8962;52.538;13.266;2023-08-24T03:35:29;19.40;99.90
17687;DHT22;8962;52.538;13.266;2023-08-24T03:37:56;19.30;99.90
17687;DHT22;8962;52.538;13.266;2023-08-24T03:40:27;19.40;99.90
17687;DHT22;8962;52.538;13.266;2023-08-24T03:42:54;19.40;99.90
17687;DHT22;8962;52.538;13.266;2023-08-24T03:45:22;19.40;99.90
17687;DHT22;8962;52.538;13.266;2023-08-24T03:47:51;19.50;99.90
17687;DHT22;8962;52.538;13.266;2023-08-24T03:50:18;19.50;99.90
17687;DHT22;8962;52.538;13.266;2023-08-24T03:52:45;19.50;99.90
17687;DHT22;8962;52.538;13.266;2023-08-24T03:55:12;19.50;99.90
17687;DHT22;8962;52.538;13.266;2023-08-24T03:57:41;19.50;99.90
17687;DHT22;8962;52.538;13.266;2023-08-24T04:00:09;19.50;99.90
17687;DHT22;8962;52.538;13.266;2023-08-24T04:02:40;19.50;99.90
17687;DHT22;8962;52.538;13.266;2023-08-24T04:05:09;19.60;99.90
17687;DHT22;8962;52.538;13.266;2023-08-24T04:07:37;19.60;99.90
17687;DHT22;8962;52.538;13.266;2023-08-24T04:10:07;19.60;99.90
17687;DHT22;8962;52.538;13.266;2023-08-24T04:12:34;19.60;99.90
17687;DHT22;8962;52.538;13.266;2023-08-24T04:15:05;19.70;99.90
17687;DHT22;8962;52.538;13.266;2023-08-24T04:17:32;19.70;99.90
17687;DHT22;8962;52.538;13.266;2023-08-24T04:20:00;19.60;99.90
17687;DHT22;8962;52.538;13.266;2023-08-24T04:22:28;19.60;99.90
17687;DHT22;8962;52.538;13.266;2023-08-24T04:24:56;19.60;99.90
17687;DHT22;8962;52.538;13.266;2023-08-24T04:27:23;19.60;99.90
17687;DHT22;8962;52.538;13.266;2023-08-24T04:29:51;19.60;99.90
17687;DHT22;8962;52.538;13.266;2023-08-24T04:32:21;19.60;99.90
17687;DHT22;8962;52.538;13.266;2023-08-24T04:34:48;19.60;99.90
17687;DHT22;8962;52.538;13.266;2023-08-24T04:37:15;19.60;99.90
17687;DHT22;8962;52.538;13.266;2023-08-24T04:39:42;19.60;99.90
17687;DHT22;8962;52.538;13.266;2023-08-24T04:42:09;19.60;99.90
17687;DHT22;8962;52.538;13.266;2023-08-24T04:44:37;19.60;99.90
17687;DHT22;8962;52.538;13.266;2023-08-24T04:47:05;19.60;99.90
17687;DHT22;8962;52.538;13.266;2023-08-24T04:49:33;19.60;99.90
17687;DHT22;8962;52.538;13.266;2023-08-24T04:52:01;19.70;99.90
17687;DHT22;8962;52.538;13.266;2023-08-24T04:54:28;19.70;99.90
17687;DHT22;8962;52.538;13.266;2023-08-24T04:56:55;19.70;99.90
17687;DHT22;8962;52.538;13.266;2023-08-24T04:59:23;19.70;99.90
17687;DHT22;8962;52.538;13.266;2023-08-24T05:01:50;19.80;99.90
17687;DHT22;8962;52.538;13.266;2023-08-24T05:04:17;19.80;99.90
17687;DHT22;8962;52.538;13.266;2023-08-24T05:06:45;19.80;99.90
17687;DHT22;8962;52.538;13.266;2023-08-24T05:09:12;19.90;99.90
17687;DHT22;8962;52.538;13.266;2023-08-24T05:11:41;19.90;99.90
17687;DHT22;8962;52.538;13.266;2023-08-24T05:14:09;19.90;99.90
17687;DHT22;8962;52.538;13.266;2023-08-24T05:16:36;20.00;99.90
17687;DHT22;8962;52.538;13.266;2023-08-24T05:19:04;20.00;99.90
17687;DHT22;8962;52.538;13.266;2023-08-24T05:21:31;20.10;99.90
17687;DHT22;8962;52.538;13.266;2023-08-24T05:24:00;20.20;99.90
17687;DHT22;8962;52.538;13.266;2023-08-24T05:26:28;20.20;99.90
17687;DHT22;8962;52.538;13.266;2023-08-24T05:28:55;20.30;99.90
17687;DHT22;8962;52.538;13.266;2023-08-24T05:31:22;20.40;99.90
17687;DHT22;8962;52.538;13.266;2023-08-24T05:33:49;20.40;99.90
17687;DHT22;8962;52.538;13.266;2023-08-24T05:36:16;20.50;99.90
17687;DHT22;8962;52.538;13.266;2023-08-24T05:38:43;20.40;99.90
17687;DHT22;8962;52.538;13.266;2023-08-24T05:41:14;20.50;99.90
17687;DHT22;8962;52.538;13.266;2023-08-24T05:43:41;20.50;99.90
17687;DHT22;8962;52.538;13.266;2023-08-24T05:46:08;20.50;99.90
17687;DHT22;8962;52.538;13.266;2023-08-24T05:48:35;20.50;99.90
17687;DHT22;8962;52.538;13.266;2023-08-24T05:51:02;20.60;99.90
17687;DHT22;8962;52.538;13.266;2023-08-24T05:53:32;20.60;99.90
17687;DHT22;8962;52.538;13.266;2023-08-24T05:55:59;20.60;99.90
17687;DHT22;8962;52.538;13.266;2023-08-24T05:58:28;20.60;99.90
17687;DHT22;8962;52.538;13.266;2023-08-24T06:00:58;20.60;99.90
17687;DHT22;8962;52.538;13.266;2023-08-24T06:03:25;20.60;99.90
17687;DHT22;8962;52.538;13.266;2023-08-24T06:05:53;20.50;99.90
17687;DHT22;8962;52.538;13.266;2023-08-24T06:08:21;20.50;99.90
17687;DHT22;8962;52.538;13.266;2023-08-24T06:10:48;20.60;99.90
17687;DHT22;8962;52.538;13.266;2023-08-24T06:13:15;20.50;99.90
17687;DHT22;8962;52.538;13.266;2023-08-24T06:15:44;20.60;99.90
17687;DHT22;8962;52.538;13.266;2023-08-24T06:18:11;20.70;99.90
17687;DHT22;8962;52.538;13.266;2023-08-24T06:20:38;20.80;99.90
17687;DHT22;8962;52.538;13.266;2023-08-24T06:23:05;20.90;99.90
17687;DHT22;8962;52.538;13.266;2023-08-24T06:25:35;21.00;99.90
17687;DHT22;8962;52.538;13.266;2023-08-24T06:28:03;21.10;99.90
17687;DHT22;8962;52.538;13.266;2023-08-24T06:30:30;21.20;99.90
17687;DHT22;8962;52.538;13.266;2023-08-24T06:33:05;21.20;99.90
17687;DHT22;8962;52.538;13.266;2023-08-24T06:35:32;21.30;99.90
17687;DHT22;8962;52.538;13.266;2023-08-24T06:38:00;21.30;99.90
17687;DHT22;8962;52.538;13.266;2023-08-24T06:40:27;21.40;99.90
17687;DHT22;8962;52.538;13.266;2023-08-24T06:42:55;21.50;99.90
17687;DHT22;8962;52.538;13.266;2023-08-24T06:45:23;21.70;99.90
17687;DHT22;8962;52.538;13.266;2023-08-24T06:47:50;21.80;99.90
17687;DHT22;8962;52.538;13.266;2023-08-24T06:50:19;22.00;99.90
17687;DHT22;8962;52.538;13.266;2023-08-24T06:52:47;22.10;99.90
17687;DHT22;8962;52.538;13.266;2023-08-24T06:55:14;22.10;99.90
17687;DHT22;8962;52.538;13.266;2023-08-24T06:57:41;22.20;99.90
17687;DHT22;8962;52.538;13.266;2023-08-24T07:00:10;22.30;99.90
17687;DHT22;8962;52.538;13.266;2023-08-24T07:02:40;22.40;99.90
17687;DHT22;8962;52.538;13.266;2023-08-24T07:05:08;22.50;99.90
17687;DHT22;8962;52.538;13.266;2023-08-24T07:07:38;22.60;99.90
17687;DHT22;8962;52.538;13.266;2023-08-24T07:10:07;22.70;99.90
17687;DHT22;8962;52.538;13.266;2023-08-24T07:12:34;22.80;99.90
17687;DHT22;8962;52.538;13.266;2023-08-24T07:15:01;23.00;99.90
17687;DHT22;8962;52.538;13.266;2023-08-24T07:17:29;23.10;99.90
17687;DHT22;8962;52.538;13.266;2023-08-24T07:19:56;23.20;99.90
17687;DHT22;8962;52.538;13.266;2023-08-24T07:22:25;23.30;99.90
17687;DHT22;8962;52.538;13.266;2023-08-24T07:24:54;23.40;99.90
17687;DHT22;8962;52.538;13.266;2023-08-24T07:27:22;23.60;99.90
17687;DHT22;8962;52.538;13.266;2023-08-24T07:29:49;23.50;99.90
17687;DHT22;8962;52.538;13.266;2023-08-24T07:32:16;23.50;99.90
17687;DHT22;8962;52.538;13.266;2023-08-24T07:34:44;23.60;99.90
17687;DHT22;8962;52.538;13.266;2023-08-24T07:37:14;23.80;99.90
17687;DHT22;8962;52.538;13.266;2023-08-24T07:39:41;23.90;99.90
17687;DHT22;8962;52.538;13.266;2023-08-24T07:42:09;23.90;99.90
17687;DHT22;8962;52.538;13.266;2023-08-24T07:44:36;24.10;99.90
17687;DHT22;8962;52.538;13.266;2023-08-24T07:47:04;24.30;99.90
17687;DHT22;8962;52.538;13.266;2023-08-24T07:49:31;24.40;99.90
17687;DHT22;8962;52.538;13.266;2023-08-24T07:51:58;24.60;99.90
17687;DHT22;8962;52.538;13.266;2023-08-24T07:54:25;24.80;99.90
17687;DHT22;8962;52.538;13.266;2023-08-24T07:56:54;25.00;99.90
17687;DHT22;8962;52.538;13.266;2023-08-24T07:59:22;25.30;99.90
17687;DHT22;8962;52.538;13.266;2023-08-24T08:01:51;25.80;99.90
17687;DHT22;8962;52.538;13.266;2023-08-24T08:04:18;25.90;99.90
17687;DHT22;8962;52.538;13.266;2023-08-24T08:06:45;25.90;99.90
17687;DHT22;8962;52.538;13.266;2023-08-24T08:09:12;26.00;99.90
17687;DHT22;8962;52.538;13.266;2023-08-24T08:11:42;25.80;99.90
17687;DHT22;8962;52.538;13.266;2023-08-24T08:14:09;25.90;99.90
17687;DHT22;8962;52.538;13.266;2023-08-24T08:16:37;26.00;99.90
17687;DHT22;8962;52.538;13.266;2023-08-24T08:19:05;26.20;99.90
17687;DHT22;8962;52.538;13.266;2023-08-24T08:21:32;26.30;99.90
17687;DHT22;8962;52.538;13.266;2023-08-24T08:23:59;26.60;99.90
17687;DHT22;8962;52.538;13.266;2023-08-24T08:26:27;26.50;99.90
17687;DHT22;8962;52.538;13.266;2023-08-24T08:28:54;26.30;99.90
17687;DHT22;8962;52.538;13.266;2023-08-24T08:31:21;26.10;99.90
17687;DHT22;8962;52.538;13.266;2023-08-24T08:33:51;26.00;99.90
17687;DHT22;8962;52.538;13.266;2023-08-24T08:36:18;25.80;99.90
17687;DHT22;8962;52.538;13.266;2023-08-24T08:38:45;25.80;99.90
17687;DHT22;8962;52.538;13.266;2023-08-24T08:41:12;25.70;99.90
17687;DHT22;8962;52.538;13.266;2023-08-24T08:43:41;25.70;99.90
17687;DHT22;8962;52.538;13.266;2023-08-24T08:46:08;25.40;99.90
17687;DHT22;8962;52.538;13.266;2023-08-24T08:48:39;25.40;99.90
17687;DHT22;8962;52.538;13.266;2023-08-24T08:51:09;25.50;99.90
17687;DHT22;8962;52.538;13.266;2023-08-24T08:53:37;25.40;99.90
17687;DHT22;8962;52.538;13.266;2023-08-24T08:56:04;25.50;99.90
17687;DHT22;8962;52.538;13.266;2023-08-24T08:58:32;25.40;99.90
17687;DHT22;8962;52.538;13.266;2023-08-24T09:01:03;25.20;99.90
17687;DHT22;8962;52.538;13.266;2023-08-24T09:03:31;25.20;99.90
17687;DHT22;8962;52.538;13.266;2023-08-24T09:05:58;25.20;99.90
17687;DHT22;8962;52.538;13.266;2023-08-24T09:08:27;25.40;99.90
17687;DHT22;8962;52.538;13.266;2023-08-24T09:10:54;25.70;99.90
17687;DHT22;8962;52.538;13.266;2023-08-24T09:13:21;26.10;99.90
17687;DHT22;8962;52.538;13.266;2023-08-24T09:15:51;26.20;99.90
17687;DHT22;8962;52.538;13.266;2023-08-24T09:18:19;26.00;99.90
17687;DHT22;8962;52.538;13.266;2023-08-24T09:20:47;25.50;99.90
17687;DHT22;8962;52.538;13.266;2023-08-24T09:23:18;25.40;99.90
17687;DHT22;8962;52.538;13.266;2023-08-24T09:25:47;25.40;99.90
17687;DHT22;8962;52.538;13.266;2023-08-24T09:28:23;25.40;99.90
17687;DHT22;8962;52.538;13.266;2023-08-24T09:30:53;25.60;99.90
17687;DHT22;8962;52.538;13.266;2023-08-24T09:33:21;25.70;99.90
17687;DHT22;8962;52.538;13.266;2023-08-24T09:35:52;25.80;99.90
17687;DHT22;8962;52.538;13.266;2023-08-24T09:38:20;26.10;99.90
17687;DHT22;8962;52.538;13.266;2023-08-24T09:40:52;26.30;99.90
17687;DHT22;8962;52.538;13.266;2023-08-24T09:43:19;26.70;99.90
17687;DHT22;8962;52.538;13.266;2023-08-24T09:45:51;27.20;99.90
17687;DHT22;8962;52.538;13.266;2023-08-24T09:48:19;27.60;99.90
17687;DHT22;8962;52.538;13.266;2023-08-24T09:50:49;27.60;99.80
17687;DHT22;8962;52.538;13.266;2023-08-24T09:53:18;27.60;99.80
17687;DHT22;8962;52.538;13.266;2023-08-24T09:55:54;27.50;99.70
17687;DHT22;8962;52.538;13.266;2023-08-24T09:58:22;27.40;99.60
17687;DHT22;8962;52.538;13.266;2023-08-24T10:00:50;27.30;99.40
17687;DHT22;8962;52.538;13.266;2023-08-24T10:03:20;27.20;99.60
17687;DHT22;8962;52.538;13.266;2023-08-24T10:05:51;27.30;99.60
17687;DHT22;8962;52.538;13.266;2023-08-24T10:08:22;27.20;99.00
17687;DHT22;8962;52.538;13.266;2023-08-24T10:10:55;27.20;99.20
17687;DHT22;8962;52.538;13.266;2023-08-24T10:13:29;27.30;99.00
17687;DHT22;8962;52.538;13.266;2023-08-24T10:15:59;27.40;98.50
17687;DHT22;8962;52.538;13.266;2023-08-24T10:18:29;27.40;98.40
17687;DHT22;8962;52.538;13.266;2023-08-24T10:20:56;27.50;98.20
17687;DHT22;8962;52.538;13.266;2023-08-24T10:23:27;27.30;98.10
17687;DHT22;8962;52.538;13.266;2023-08-24T10:25:57;27.40;98.10
17687;DHT22;8962;52.538;13.266;2023-08-24T10:28:27;27.40;98.50
17687;DHT22;8962;52.538;13.266;2023-08-24T10:30:57;27.40;98.70
17687;DHT22;8962;52.538;13.266;2023-08-24T10:33:26;27.30;98.80
17687;DHT22;8962;52.538;13.266;2023-08-24T10:35:53;27.40;99.10
17687;DHT22;8962;52.538;13.266;2023-08-24T10:38:27;27.50;99.50
17687;DHT22;8962;52.538;13.266;2023-08-24T10:40:55;27.60;99.20
17687;DHT22;8962;52.538;13.266;2023-08-24T10:43:29;27.50;98.70
17687;DHT22;8962;52.538;13.266;2023-08-24T10:45:57;27.50;98.20
17687;DHT22;8962;52.538;13.266;2023-08-24T10:48:26;27.50;97.10
17687;DHT22;8962;52.538;13.266;2023-08-24T10:51:24;27.10;96.70
17687;DHT22;8962;52.538;13.266;2023-08-24T10:53:53;27.10;97.00
17687;DHT22;8962;52.538;13.266;2023-08-24T10:56:25;27.20;97.10
17687;DHT22;8962;52.538;13.266;2023-08-24T10:59:14;27.20;97.20
17687;DHT22;8962;52.538;13.266;2023-08-24T11:01:54;27.10;97.40
17687;DHT22;8962;52.538;13.266;2023-08-24T11:04:21;27.20;97.60
17687;DHT22;8962;52.538;13.266;2023-08-24T11:06:54;27.50;97.70
17687;DHT22;8962;52.538;13.266;2023-08-24T11:09:22;27.80;97.30
17687;DHT22;8962;52.538;13.266;2023-08-24T11:11:57;27.90;97.10
17687;DHT22;8962;52.538;13.266;2023-08-24T11:14:29;28.10;96.60
17687;DHT22;8962;52.538;13.266;2023-08-24T11:16:59;28.10;96.90
17687;DHT22;8962;52.538;13.266;2023-08-24T11:19:29;28.20;96.40
17687;DHT22;8962;52.538;13.266;2023-08-24T11:21:57;28.20;96.10
17687;DHT22;8962;52.538;13.266;2023-08-24T11:24:27;28.20;96.30
17687;DHT22;8962;52.538;13.266;2023-08-24T11:26:56;28.20;96.10
17687;DHT22;8962;52.538;13.266;2023-08-24T11:29:27;28.10;96.80
17687;DHT22;8962;52.538;13.266;2023-08-24T11:31:54;28.30;96.20
17687;DHT22;8962;52.538;13.266;2023-08-24T11:34:25;28.50;96.10
17687;DHT22;8962;52.538;13.266;2023-08-24T11:36:52;28.80;95.10
17687;DHT22;8962;52.538;13.266;2023-08-24T11:39:22;29.00;95.40
17687;DHT22;8962;52.538;13.266;2023-08-24T11:41:57;29.80;94.60
17687;DHT22;8962;52.538;13.266;2023-08-24T11:44:27;30.90;90.20
17687;DHT22;8962;52.538;13.266;2023-08-24T11:46:56;31.80;85.60
17687;DHT22;8962;52.538;13.266;2023-08-24T11:49:25;32.40;76.80
17687;DHT22;8962;52.538;13.266;2023-08-24T11:51:52;33.50;73.40
17687;DHT22;8962;52.538;13.266;2023-08-24T11:54:21;33.80;69.30
17687;DHT22;8962;52.538;13.266;2023-08-24T11:56:48;34.30;60.00
17687;DHT22;8962;52.538;13.266;2023-08-24T11:59:16;34.30;57.30
17687;DHT22;8962;52.538;13.266;2023-08-24T12:01:47;34.60;53.90
17687;DHT22;8962;52.538;13.266;2023-08-24T12:04:14;34.60;51.30
17687;DHT22;8962;52.538;13.266;2023-08-24T12:06:41;35.00;53.20
17687;DHT22;8962;52.538;13.266;2023-08-24T12:09:09;34.70;50.10
17687;DHT22;8962;52.538;13.266;2023-08-24T12:11:37;35.10;48.50
17687;DHT22;8962;52.538;13.266;2023-08-24T12:14:06;35.00;47.00
17687;DHT22;8962;52.538;13.266;2023-08-24T12:16:35;34.80;47.60
17687;DHT22;8962;52.538;13.266;2023-08-24T12:19:07;35.10;47.00
17687;DHT22;8962;52.538;13.266;2023-08-24T12:21:34;35.00;45.10
17687;DHT22;8962;52.538;13.266;2023-08-24T12:24:02;35.40;43.70
17687;DHT22;8962;52.538;13.266;2023-08-24T12:26:33;36.00;39.40
17687;DHT22;8962;52.538;13.266;2023-08-24T12:29:02;35.50;40.70
17687;DHT22;8962;52.538;13.266;2023-08-24T12:31:29;34.80;42.20
17687;DHT22;8962;52.538;13.266;2023-08-24T12:34:01;34.40;44.20
17687;DHT22;8962;52.538;13.266;2023-08-24T12:36:35;34.90;42.10
17687;DHT22;8962;52.538;13.266;2023-08-24T12:39:03;35.20;40.60
17687;DHT22;8962;52.538;13.266;2023-08-24T12:41:31;36.00;37.90
17687;DHT22;8962;52.538;13.266;2023-08-24T12:44:00;36.00;37.40
17687;DHT22;8962;52.538;13.266;2023-08-24T12:46:30;36.40;34.80
17687;DHT22;8962;52.538;13.266;2023-08-24T12:48:57;36.50;34.50
17687;DHT22;8962;52.538;13.266;2023-08-24T12:51:25;36.30;33.90
17687;DHT22;8962;52.538;13.266;2023-08-24T12:53:53;35.60;34.60
17687;DHT22;8962;52.538;13.266;2023-08-24T12:56:20;35.30;35.90
17687;DHT22;8962;52.538;13.266;2023-08-24T12:58:48;35.50;35.10
17687;DHT22;8962;52.538;13.266;2023-08-24T13:01:15;36.00;34.50
17687;DHT22;8962;52.538;13.266;2023-08-24T13:03:44;36.20;34.20
17687;DHT22;8962;52.538;13.266;2023-08-24T13:06:11;36.40;32.40
17687;DHT22;8962;52.538;13.266;2023-08-24T13:08:38;36.80;30.90
17687;DHT22;8962;52.538;13.266;2023-08-24T13:11:07;36.20;31.40
17687;DHT22;8962;52.538;13.266;2023-08-24T13:13:34;36.40;31.50
17687;DHT22;8962;52.538;13.266;2023-08-24T13:16:04;35.90;33.10
17687;DHT22;8962;52.538;13.266;2023-08-24T13:18:32;35.80;33.20
17687;DHT22;8962;52.538;13.266;2023-08-24T13:20:59;36.40;32.50
17687;DHT22;8962;52.538;13.266;2023-08-24T13:23:26;37.60;30.80
17687;DHT22;8962;52.538;13.266;2023-08-24T13:25:53;37.60;30.10
17687;DHT22;8962;52.538;13.266;2023-08-24T13:28:23;38.00;28.10
17687;DHT22;8962;52.538;13.266;2023-08-24T13:30:50;38.20;27.70
17687;DHT22;8962;52.538;13.266;2023-08-24T13:33:17;38.40;26.20
17687;DHT22;8962;52.538;13.266;2023-08-24T13:35:45;38.10;25.90
17687;DHT22;8962;52.538;13.266;2023-08-24T13:38:12;38.40;25.10
17687;DHT22;8962;52.538;13.266;2023-08-24T13:40:39;37.90;25.50
17687;DHT22;8962;52.538;13.266;2023-08-24T13:43:07;38.50;24.70
17687;DHT22;8962;52.538;13.266;2023-08-24T13:45:36;39.50;22.90
17687;DHT22;8962;52.538;13.266;2023-08-24T13:48:03;39.00;22.90
17687;DHT22;8962;52.538;13.266;2023-08-24T13:50:31;39.10;22.20
17687;DHT22;8962;52.538;13.266;2023-08-24T13:53:01;39.10;21.90
17687;DHT22;8962;52.538;13.266;2023-08-24T13:55:30;38.70;22.10
17687;DHT22;8962;52.538;13.266;2023-08-24T13:57:58;39.20;21.10
17687;DHT22;8962;52.538;13.266;2023-08-24T14:00:25;39.20;22.50
17687;DHT22;8962;52.538;13.266;2023-08-24T14:02:54;39.60;20.90
17687;DHT22;8962;52.538;13.266;2023-08-24T14:05:21;39.40;20.60
17687;DHT22;8962;52.538;13.266;2023-08-24T14:07:48;38.70;21.20
17687;DHT22;8962;52.538;13.266;2023-08-24T14:10:16;39.40;20.60
17687;DHT22;8962;52.538;13.266;2023-08-24T14:12:43;38.20;22.30
17687;DHT22;8962;52.538;13.266;2023-08-24T14:15:10;37.30;23.80
17687;DHT22;8962;52.538;13.266;2023-08-24T14:17:37;36.50;25.30
17687;DHT22;8962;52.538;13.266;2023-08-24T14:20:09;35.70;26.70
17687;DHT22;8962;52.538;13.266;2023-08-24T14:22:38;35.90;26.50
17687;DHT22;8962;52.538;13.266;2023-08-24T14:25:06;36.20;26.00
17687;DHT22;8962;52.538;13.266;2023-08-24T14:27:33;37.30;24.70
17687;DHT22;8962;52.538;13.266;2023-08-24T14:30:01;37.60;24.40
17687;DHT22;8962;52.538;13.266;2023-08-24T14:32:28;38.50;23.00
17687;DHT22;8962;52.538;13.266;2023-08-24T14:34:55;39.30;21.70
17687;DHT22;8962;52.538;13.266;2023-08-24T14:37:27;39.20;21.20
17687;DHT22;8962;52.538;13.266;2023-08-24T14:39:55;38.80;21.20
17687;DHT22;8962;52.538;13.266;2023-08-24T14:42:24;37.80;22.50
17687;DHT22;8962;52.538;13.266;2023-08-24T14:44:52;37.20;23.40
17687;DHT22;8962;52.538;13.266;2023-08-24T14:47:19;37.00;24.00
17687;DHT22;8962;52.538;13.266;2023-08-24T14:49:46;37.40;24.00
17687;DHT22;8962;52.538;13.266;2023-08-24T14:52:14;37.40;23.60
17687;DHT22;8962;52.538;13.266;2023-08-24T14:54:44;37.10;24.00
17687;DHT22;8962;52.538;13.266;2023-08-24T14:57:11;37.30;24.20
17687;DHT22;8962;52.538;13.266;2023-08-24T14:59:39;37.70;23.40
17687;DHT22;8962;52.538;13.266;2023-08-24T15:02:06;38.70;22.40
17687;DHT22;8962;52.538;13.266;2023-08-24T15:04:36;39.40;20.90
17687;DHT22;8962;52.538;13.266;2023-08-24T15:07:03;39.90;20.30
17687;DHT22;8962;52.538;13.266;2023-08-24T15:09:31;40.10;20.00
17687;DHT22;8962;52.538;13.266;2023-08-24T15:12:00;39.70;19.80
17687;DHT22;8962;52.538;13.266;2023-08-24T15:14:30;38.80;21.00
17687;DHT22;8962;52.538;13.266;2023-08-24T15:16:58;36.80;23.40
17687;DHT22;8962;52.538;13.266;2023-08-24T15:19:25;35.70;25.00
17687;DHT22;8962;52.538;13.266;2023-08-24T15:21:52;34.70;26.10
17687;DHT22;8962;52.538;13.266;2023-08-24T15:24:19;33.60;28.00
17687;DHT22;8962;52.538;13.266;2023-08-24T15:26:46;33.00;28.90
17687;DHT22;8962;52.538;13.266;2023-08-24T15:29:16;32.00;31.60
17687;DHT22;8962;52.538;13.266;2023-08-24T15:31:45;31.20;34.70
17687;DHT22;8962;52.538;13.266;2023-08-24T15:34:12;30.80;36.20
17687;DHT22;8962;52.538;13.266;2023-08-24T15:36:39;30.60;38.70
17687;DHT22;8962;52.538;13.266;2023-08-24T15:39:07;30.50;39.20